Time;durP1;ratioP1;P1;durP2;ratioP2;P2;SDS_P1;SDS_P2;PMS_P1;PMS_P2;Temp;Humidity;BMP_temperature;BMP_pressure;BME280_temperature;BME280_humidity;BME280_pressure;Samples;Min_cycle;Max_cycle;Signal;HPM_P1;HPM_P2
2023/03/06 00:02:04;;;;;;;18.13;7.15;;;;;;;0.71;100.00;100758.59;4975276;28;20047;-79
2023/03/06 00:04:30;;;;;;;10.50;7.00;;;;;;;0.78;100.00;100754.94;4988287;28;20475;-79
2023/03/06 00:06:57;;;;;;;12.68;6.70;;;;;;;0.82;100.00;100753.13;4982105;28;20030;-79
2023/03/06 00:09:23;;;;;;;12.48;7.32;;;;;;;0.84;100.00;100748.72;4976718;28;20045;-79
2023/03/06 00:11:49;;;;;;;17.58;6.65;;;;;;;0.86;100.00;100753.06;4959857;28;20037;-78
2023/03/06 00:14:15;;;;;;;14.55;5.97;;;;;;;0.89;100.00;100750.38;4984522;28;20070;-78
2023/03/06 00:16:42;;;;;;;12.65;6.80;;;;;;;0.86;100.00;100749.53;4969495;28;20114;-78
2023/03/06 00:19:08;;;;;;;11.85;5.90;;;;;;;0.90;100.00;100749.50;4985930;28;20072;-78
2023/03/06 00:21:34;;;;;;;12.10;6.78;;;;;;;0.97;100.00;100737.13;4991682;28;20085;-78
2023/03/06 00:24:00;;;;;;;9.73;6.03;;;;;;;0.98;100.00;100733.56;4967147;28;20500;-78
2023/03/06 00:26:27;;;;;;;13.65;6.13;;;;;;;0.99;100.00;100724.81;4981682;28;20066;-78
2023/03/06 00:28:53;;;;;;;12.45;6.47;;;;;;;1.02;100.00;100719.47;4981709;28;20042;-79
2023/03/06 00:31:19;;;;;;;12.05;6.15;;;;;;;1.05;100.00;100716.81;4990537;28;20247;-79
2023/03/06 00:33:45;;;;;;;13.93;7.22;;;;;;;1.06;100.00;100715.94;4984099;28;20069;-78
2023/03/06 00:36:12;;;;;;;14.38;6.95;;;;;;;1.10;100.00;100707.09;4996401;28;20033;-78
2023/03/06 00:38:40;;;;;;;12.77;6.40;;;;;;;1.09;100.00;100700.06;4981587;28;20068;-78
2023/03/06 00:41:08;;;;;;;18.25;8.05;;;;;;;1.11;100.00;100697.44;4976810;28;20419;-78
2023/03/06 00:43:34;;;;;;;13.95;7.05;;;;;;;1.15;100.00;100697.31;4979884;28;20097;-78
2023/03/06 00:46:04;;;;;;;15.55;6.10;;;;;;;1.23;100.00;100685.78;4978939;28;20452;-79
2023/03/06 00:48:32;;;;;;;14.75;6.55;;;;;;;1.26;100.00;100691.88;4993728;28;20439;-79
2023/03/06 00:50:58;;;;;;;14.52;7.50;;;;;;;1.30;100.00;100685.63;4971434;28;20030;-79
2023/03/06 00:53:24;;;;;;;11.43;7.00;;;;;;;1.32;100.00;100686.50;4981738;28;20105;-79
2023/03/06 00:55:51;;;;;;;25.45;8.07;;;;;;;1.32;100.00;100681.25;4980902;28;20454;-79
2023/03/06 00:58:17;;;;;;;15.05;7.50;;;;;;;1.34;100.00;100682.06;4983272;28;20382;-79
2023/03/06 01:00:44;;;;;;;13.25;8.27;;;;;;;1.32;100.00;100680.34;4980640;28;20057;-79
2023/03/06 01:03:10;;;;;;;12.00;7.80;;;;;;;1.39;100.00;100673.22;4966983;28;20058;-79
2023/03/06 01:05:37;;;;;;;17.08;8.77;;;;;;;1.32;100.00;100675.97;5001031;28;20050;-79
2023/03/06 01:08:05;;;;;;;16.17;8.55;;;;;;;1.33;100.00;100663.69;4979744;28;20146;-79
2023/03/06 01:10:32;;;;;;;19.00;10.38;;;;;;;1.32;100.00;100660.19;4977563;28;20054;-79
2023/03/06 01:12:58;;;;;;;21.77;11.20;;;;;;;1.29;100.00;100662.88;4971779;28;20038;-79
2023/03/06 01:15:25;;;;;;;20.08;10.75;;;;;;;1.24;100.00;100663.88;4977745;28;20381;-78
2023/03/06 01:17:55;;;;;;;21.50;10.48;;;;;;;1.05;100.00;100661.59;4981104;28;20093;-78
2023/03/06 01:20:21;;;;;;;16.88;11.15;;;;;;;0.93;100.00;100662.72;4980616;28;20034;-79
2023/03/06 01:22:48;;;;;;;20.42;12.77;;;;;;;0.88;100.00;100663.69;4981335;28;20451;-80
2023/03/06 01:25:14;;;;;;;25.88;12.57;;;;;;;0.79;100.00;100666.47;4957888;28;20027;-78
2023/03/06 01:27:42;;;;;;;25.40;13.98;;;;;;;0.76;100.00;100664.75;4983729;28;20124;-79
2023/03/06 01:30:10;;;;;;;22.13;13.25;;;;;;;0.72;100.00;100663.94;4965422;28;20034;-78
2023/03/06 01:32:37;;;;;;;24.85;13.85;;;;;;;0.67;100.00;100668.44;4965671;28;20507;-78
2023/03/06 01:35:05;;;;;;;22.85;13.50;;;;;;;0.61;100.00;100665.88;4979121;28;20388;-78
2023/03/06 01:37:31;;;;;;;28.13;12.63;;;;;;;0.56;100.00;100663.34;4972620;28;20061;-79
2023/03/06 01:39:58;;;;;;;18.90;12.70;;;;;;;0.52;100.00;100663.41;4976197;28;20066;-79
2023/03/06 01:42:25;;;;;;;22.10;11.90;;;;;;;0.45;100.00;100661.78;4976405;28;20104;-79
2023/03/06 01:45:12;;;;;;;17.92;11.98;;;;;;;0.44;100.00;100654.81;4977757;28;20066;-78
2023/03/06 01:47:39;;;;;;;24.02;12.30;;;;;;;0.51;100.00;100653.81;4981253;28;20151;-79
2023/03/06 01:50:07;;;;;;;22.08;12.38;;;;;;;0.52;100.00;100651.19;4979588;28;20039;-79
2023/03/06 01:52:42;;;;;;;19.60;12.48;;;;;;;0.56;100.00;100646.75;4983612;28;20118;-78
2023/03/06 01:55:12;;;;;;;23.05;13.32;;;;;;;0.52;100.00;100640.66;4979981;28;20038;-78
2023/03/06 01:57:43;;;;;;;22.17;14.30;;;;;;;0.49;100.00;100650.34;4982580;28;20026;-78
2023/03/06 02:00:19;;;;;;;23.98;14.68;;;;;;;0.44;100.00;100639.91;4961811;28;20314;-78
2023/03/06 02:03:05;;;;;;;26.40;16.92;;;;;;;0.42;100.00;100643.47;4967748;28;20096;-78
2023/03/06 02:05:35;;;;;;;25.90;16.70;;;;;;;0.34;100.00;100641.84;4994875;28;20042;-78
2023/03/06 02:08:02;;;;;;;29.05;17.73;;;;;;;0.31;100.00;100630.50;4959337;28;20476;-79
2023/03/06 02:10:29;;;;;;;35.42;17.52;;;;;;;0.31;100.00;100630.50;4961859;28;20027;-80
2023/03/06 02:12:55;;;;;;;26.52;16.95;;;;;;;0.31;100.00;100631.38;4989378;28;20129;-80
2023/03/06 02:15:24;;;;;;;30.15;17.05;;;;;;;0.36;100.00;100631.31;4939147;28;20083;-79
2023/03/06 02:17:53;;;;;;;30.95;18.50;;;;;;;0.41;100.00;100626.84;4976833;28;20578;-80
2023/03/06 02:20:35;;;;;;;28.50;17.23;;;;;;;0.46;100.00;100624.13;4966763;28;20049;-79
2023/03/06 02:23:20;;;;;;;27.42;16.67;;;;;;;0.48;100.00;100622.34;4980668;28;20042;-79
2023/03/06 02:25:50;;;;;;;33.40;17.95;;;;;;;0.62;100.00;100620.34;4991912;28;20030;-79
2023/03/06 02:28:20;;;;;;;30.10;16.75;;;;;;;0.74;100.00;100614.84;4979360;28;20038;-79
2023/03/06 02:30:49;;;;;;;34.40;18.87;;;;;;;0.82;100.00;100616.47;4966068;28;20419;-79
2023/03/06 02:33:18;;;;;;;30.83;18.13;;;;;;;0.87;100.00;100612.00;4967750;28;20296;-79
2023/03/06 02:35:59;;;;;;;30.63;18.20;;;;;;;0.99;100.00;100611.78;4984490;28;20030;-79
2023/03/06 02:38:27;;;;;;;;;;;;;;;1.10;100.00;100609.81;4983323;28;20038;-79
2023/03/06 02:40:53;;;;;;;32.17;17.48;;;;;;;1.14;100.00;100618.50;4976025;28;20338;-79
2023/03/06 02:43:28;;;;;;;30.55;17.98;;;;;;;1.21;100.00;100608.72;4967294;28;20499;-79
2023/03/06 02:45:54;;;;;;;33.78;19.20;;;;;;;1.32;100.00;100596.19;4966003;28;20140;-79
2023/03/06 02:48:21;;;;;;;27.08;16.88;;;;;;;1.40;100.00;100604.81;4983150;28;20042;-79
2023/03/06 02:50:49;;;;;;;31.58;17.75;;;;;;;1.44;100.00;100595.09;4983764;28;20598;-79
2023/03/06 02:53:17;;;;;;;28.02;16.67;;;;;;;1.48;100.00;100581.81;4980958;28;20050;-79
2023/03/06 02:55:45;;;;;;;23.65;14.80;;;;;;;1.51;100.00;100581.75;4994008;28;20027;-79
2023/03/06 02:58:13;;;;;;;25.70;14.70;;;;;;;1.57;100.00;100580.75;4946452;28;20046;-78
2023/03/06 03:00:40;;;;;;;25.40;13.10;;;;;;;1.60;100.00;100572.78;4980309;28;20041;-78
2023/03/06 03:03:08;;;;;;;20.17;12.10;;;;;;;1.66;100.00;100569.13;4970140;28;20029;-78
2023/03/06 03:05:34;;;;;;;17.17;11.40;;;;;;;1.72;100.00;100563.75;4980452;28;20042;-78
2023/03/06 03:08:08;;;;;;;18.13;10.77;;;;;;;1.76;100.00;100565.41;4970545;28;20076;-78
2023/03/06 03:10:34;;;;;;;21.80;10.68;;;;;;;1.76;100.00;100562.78;4982383;28;20065;-78
2023/03/06 03:13:00;;;;;;;18.15;10.07;;;;;;;1.84;100.00;100550.28;4951924;28;20610;-78
2023/03/06 03:15:27;;;;;;;16.00;9.05;;;;;;;1.81;100.00;100550.38;4967133;28;20051;-79
2023/03/06 03:17:53;;;;;;;18.08;8.90;;;;;;;1.81;100.00;100542.50;4974934;28;20039;-79
2023/03/06 03:20:21;;;;;;;20.00;9.38;;;;;;;1.85;100.00;100544.13;4966529;28;20047;-78
2023/03/06 03:22:49;;;;;;;17.13;8.68;;;;;;;1.88;100.00;100537.91;4948125;28;20041;-78
2023/03/06 03:25:16;;;;;;;13.52;8.15;;;;;;;1.88;100.00;100538.81;4972202;28;20056;-78
2023/03/06 03:27:42;;;;;;;12.68;7.30;;;;;;;1.97;100.00;100532.44;4957357;28;20117;-78
2023/03/06 03:30:09;;;;;;;14.02;8.25;;;;;;;2.01;100.00;100530.59;4962044;28;20584;-78
2023/03/06 03:32:36;;;;;;;12.48;7.57;;;;;;;2.07;100.00;100533.06;4979341;28;20042;-79
2023/03/06 03:35:03;;;;;;;13.73;7.38;;;;;;;2.11;100.00;100529.47;4969964;28;20545;-79
2023/03/06 03:37:30;;;;;;;17.52;9.07;;;;;;;2.15;100.00;100535.53;4977499;28;20489;-78
2023/03/06 03:39:57;;;;;;;13.65;7.50;;;;;;;2.19;100.00;100519.59;4981163;28;20059;-79
2023/03/06 03:42:24;;;;;;;11.80;7.47;;;;;;;2.16;100.00;100514.38;4971852;28;20042;-78
2023/03/06 03:44:51;;;;;;;12.27;7.25;;;;;;;2.18;100.00;100515.25;4967780;28;20093;-78
2023/03/06 03:47:20;;;;;;;15.85;8.38;;;;;;;2.23;100.00;100513.31;4968247;28;20046;-79
2023/03/06 03:49:47;;;;;;;15.93;8.70;;;;;;;2.25;100.00;100518.56;4968684;28;20078;-79
2023/03/06 03:52:13;;;;;;;15.75;8.63;;;;;;;2.26;100.00;100513.25;4985797;28;20050;-79
2023/03/06 03:54:40;;;;;;;16.40;9.45;;;;;;;2.13;100.00;100512.72;4997951;28;20038;-79
2023/03/06 03:57:06;;;;;;;20.98;9.73;;;;;;;2.21;100.00;100507.25;4972723;28;20038;-79
2023/03/06 03:59:36;;;;;;;15.93;9.85;;;;;;;2.19;100.00;100510.84;4983020;28;20113;-79
2023/03/06 04:02:28;;;;;;;17.38;10.45;;;;;;;2.20;100.00;100507.28;4975344;28;20043;-78
2023/03/06 04:05:16;;;;;;;20.95;10.38;;;;;;;2.16;100.00;100498.59;4971897;28;20038;-79
2023/03/06 04:07:43;;;;;;;18.27;11.98;;;;;;;2.15;100.00;100501.28;4952897;28;20073;-79
2023/03/06 04:10:12;;;;;;;23.73;12.32;;;;;;;2.15;100.00;100499.50;4975766;28;20089;-79
2023/03/06 04:12:38;;;;;;;20.88;12.82;;;;;;;2.14;100.00;100500.41;4960724;28;20026;-80
2023/03/06 04:15:06;;;;;;;17.92;12.30;;;;;;;2.12;100.00;100500.47;4979965;28;20035;-80
2023/03/06 04:17:33;;;;;;;20.98;11.77;;;;;;;2.12;100.00;100489.03;4969494;28;20040;-80
2023/03/06 04:20:04;;;;;;;17.20;11.02;;;;;;;2.12;100.00;100502.22;4969917;28;20030;-80
2023/03/06 04:22:35;;;;;;;14.93;9.20;;;;;;;2.18;100.00;100496.81;4968728;28;20062;-80
2023/03/06 04:25:01;;;;;;;25.17;9.80;;;;;;;2.22;100.00;100501.09;4964427;28;20128;-79
2023/03/06 04:27:28;;;;;;;15.98;10.00;;;;;;;2.22;100.00;100501.09;4982585;28;20032;-79
2023/03/06 04:29:55;;;;;;;15.98;9.43;;;;;;;2.26;100.00;100491.34;4985147;28;20069;-79
2023/03/06 04:32:22;;;;;;;18.23;9.90;;;;;;;2.20;100.00;100491.47;4987542;28;21499;-79
2023/03/06 04:34:49;;;;;;;17.05;10.38;;;;;;;2.22;100.00;100490.56;4987088;28;20471;-79
2023/03/06 04:37:21;;;;;;;12.30;7.38;;;;;;;2.18;100.00;100488.03;4983648;28;20533;-79
2023/03/06 04:39:49;;;;;;;12.48;7.80;;;;;;;2.07;100.00;100488.28;4967176;28;20039;-81
2023/03/06 04:42:15;;;;;;;15.43;7.00;;;;;;;2.04;100.00;100483.13;4969813;28;20074;-79
2023/03/06 04:44:41;;;;;;;11.18;8.02;;;;;;;2.07;100.00;100485.66;4984780;28;20116;-81
2023/03/06 04:47:07;;;;;;;14.88;7.50;;;;;;;2.07;100.00;100480.41;4967579;28;20129;-81
2023/03/06 04:49:34;;;;;;;12.90;7.40;;;;;;;2.04;100.00;100480.50;4971199;28;21284;-80
2023/03/06 04:52:00;;;;;;;11.55;6.93;;;;;;;2.02;100.00;100477.91;4978182;28;20042;-80
2023/03/06 04:54:27;;;;;;;12.00;6.60;;;;;;;2.03;100.00;100473.50;4970605;28;20055;-79
2023/03/06 04:56:53;;;;;;;12.63;5.95;;;;;;;2.06;100.00;100481.31;4979324;28;20458;-80
2023/03/06 04:59:19;;;;;;;12.20;5.88;;;;;;;2.06;100.00;100483.94;4957440;28;20037;-80
2023/03/06 05:01:45;;;;;;;10.75;5.30;;;;;;;2.05;100.00;100476.94;4976442;28;20084;-80
2023/03/06 05:04:11;;;;;;;13.40;5.30;;;;;;;2.03;100.00;100474.38;4967557;28;20468;-80
2023/03/06 05:06:38;;;;;;;10.55;5.28;;;;;;;2.03;100.00;100479.63;4964028;28;20609;-79
2023/03/06 05:09:04;;;;;;;20.08;6.80;;;;;;;2.04;100.00;100477.88;4972817;28;20035;-79
2023/03/06 05:11:31;;;;;;;9.38;4.63;;;;;;;2.04;100.00;100473.44;4956934;28;20416;-79
2023/03/06 05:13:59;;;;;;;9.32;5.78;;;;;;;2.02;100.00;100480.53;4980646;28;20403;-80
2023/03/06 05:16:25;;;;;;;13.23;5.88;;;;;;;2.05;100.00;100476.94;4977265;28;20064;-81
2023/03/06 05:18:52;;;;;;;12.73;5.43;;;;;;;2.05;100.00;100476.94;4983090;28;20595;-79
2023/03/06 05:21:18;;;;;;;8.75;5.85;;;;;;;2.08;100.00;100471.59;4975381;28;20147;-79
2023/03/06 05:23:44;;;;;;;14.88;5.82;;;;;;;2.09;100.00;100470.72;4957743;28;20137;-80
2023/03/06 05:26:12;;;;;;;13.15;5.88;;;;;;;2.10;100.00;100475.06;4971071;28;20061;-79
2023/03/06 05:28:39;;;;;;;15.93;5.38;;;;;;;2.10;100.00;100475.91;4969073;28;20038;-80
2023/03/06 05:31:06;;;;;;;12.55;6.35;;;;;;;2.06;100.00;100468.16;4958406;28;20582;-80
2023/03/06 05:33:33;;;;;;;14.48;6.78;;;;;;;2.01;100.00;100459.50;4974079;28;20130;-80
2023/03/06 05:36:00;;;;;;;9.93;5.55;;;;;;;1.94;100.00;100464.94;4978990;28;20043;-80
2023/03/06 05:38:27;;;;;;;9.75;5.90;;;;;;;1.87;100.00;100462.50;4963216;28;20047;-80
2023/03/06 05:40:53;;;;;;;15.20;6.30;;;;;;;1.79;100.00;100462.72;4976557;28;20121;-80
2023/03/06 05:43:19;;;;;;;14.35;6.25;;;;;;;1.71;100.00;100462.88;4974099;28;20559;-80
2023/03/06 05:45:46;;;;;;;13.57;6.90;;;;;;;1.66;100.00;100470.03;4972322;28;20085;-80
2023/03/06 05:48:13;;;;;;;14.13;6.95;;;;;;;1.65;100.00;100463.03;4963387;28;20034;-80
2023/03/06 05:50:39;;;;;;;13.27;7.18;;;;;;;1.65;100.00;100467.44;4988522;28;20650;-80
2023/03/06 05:53:06;;;;;;;17.33;7.53;;;;;;;1.66;100.00;100463.88;4980881;28;20061;-80
2023/03/06 05:55:32;;;;;;;18.50;8.10;;;;;;;1.67;100.00;100460.38;4972735;28;20035;-80
2023/03/06 05:57:58;;;;;;;14.82;7.63;;;;;;;1.65;100.00;100459.53;4976855;28;20035;-80
2023/03/06 06:00:25;;;;;;;15.73;7.63;;;;;;;1.63;100.00;100461.34;4974912;28;20042;-80
2023/03/06 06:02:51;;;;;;;17.38;7.28;;;;;;;1.61;100.00;100460.53;4976938;28;20447;-80
2023/03/06 06:05:17;;;;;;;19.88;8.55;;;;;;;1.59;100.00;100462.34;4977513;28;20471;-80
2023/03/06 06:07:43;;;;;;;15.30;8.35;;;;;;;1.57;100.00;100461.47;4962931;28;20041;-80
2023/03/06 06:10:11;;;;;;;15.93;8.35;;;;;;;1.55;100.00;100462.41;4973107;28;20038;-80
2023/03/06 06:12:37;;;;;;;16.63;7.97;;;;;;;1.53;100.00;100464.22;4962810;28;20042;-78
2023/03/06 06:15:05;;;;;;;21.88;8.50;;;;;;;1.49;100.00;100462.56;4979886;28;20370;-78
2023/03/06 06:17:31;;;;;;;17.08;8.20;;;;;;;1.50;100.00;100464.28;4963344;28;20399;-79
2023/03/06 06:19:57;;;;;;;16.90;9.00;;;;;;;1.45;100.00;100471.41;4982737;28;20033;-78
2023/03/06 06:22:24;;;;;;;12.10;6.97;;;;;;;1.43;100.00;100475.84;4965377;28;20093;-79
2023/03/06 06:24:50;;;;;;;9.18;4.35;;;;;;;1.46;100.00;100475.78;4979305;28;20096;-79
2023/03/06 06:27:16;;;;;;;10.48;4.78;;;;;;;1.51;100.00;100473.91;4979947;28;20062;-78
2023/03/06 06:29:42;;;;;;;6.82;3.40;;;;;;;1.52;100.00;100473.00;4978077;28;20502;-78
2023/03/06 06:32:09;;;;;;;7.30;2.50;;;;;;;1.52;100.00;100475.63;4981295;28;20137;-79
2023/03/06 06:34:35;;;;;;;6.80;2.45;;;;;;;1.54;100.00;100483.47;4966436;28;20126;-80
2023/03/06 06:37:01;;;;;;;14.15;2.75;;;;;;;1.58;100.00;100474.59;4978544;28;20041;-78
2023/03/06 06:39:28;;;;;;;7.50;2.50;;;;;;;1.61;100.00;100471.91;4960960;28;20042;-79
2023/03/06 06:41:56;;;;;;;7.35;2.60;;;;;;;1.66;100.00;100480.56;4973098;28;20075;-78
2023/03/06 06:44:22;;;;;;;8.60;3.13;;;;;;;1.67;100.00;100477.00;4962600;28;20038;-78
2023/03/06 06:46:49;;;;;;;4.88;2.70;;;;;;;1.74;100.00;100483.00;4975011;28;20043;-78
2023/03/06 06:49:16;;;;;;;5.38;2.55;;;;;;;1.74;100.00;100478.59;4974005;28;20093;-78
2023/03/06 06:51:42;;;;;;;6.68;3.20;;;;;;;1.75;100.00;100482.09;4975974;28;20023;-78
2023/03/06 06:54:10;;;;;;;6.43;2.92;;;;;;;1.76;100.00;100480.34;4972776;28;20027;-79
2023/03/06 06:56:36;;;;;;;7.82;3.58;;;;;;;1.78;100.00;100483.78;4965076;28;20023;-79
2023/03/06 06:59:03;;;;;;;6.90;3.47;;;;;;;1.78;100.00;100489.91;4982983;28;20038;-79
2023/03/06 07:01:29;;;;;;;7.35;3.63;;;;;;;1.80;100.00;100482.84;4976176;28;20519;-79
2023/03/06 07:03:56;;;;;;;11.02;4.45;;;;;;;1.86;100.00;100490.56;4984420;28;20054;-79
2023/03/06 07:06:22;;;;;;;8.52;3.67;;;;;;;1.90;100.00;100476.47;4982162;28;20042;-78
2023/03/06 07:08:48;;;;;;;6.95;3.30;;;;;;;1.97;100.00;100476.28;4986510;28;20408;-78
2023/03/06 07:11:16;;;;;;;8.57;3.65;;;;;;;2.03;100.00;100481.38;4982434;28;20046;-78
2023/03/06 07:13:43;;;;;;;6.35;3.55;;;;;;;2.16;100.00;100485.41;4970142;28;20076;-78
2023/03/06 07:16:10;;;;;;;9.57;4.05;;;;;;;2.23;100.00;100486.13;4965357;28;20069;-78
2023/03/06 07:18:36;;;;;;;7.55;2.85;;;;;;;2.25;100.00;100485.19;4961699;28;20447;-78
2023/03/06 07:21:03;;;;;;;6.75;3.70;;;;;;;2.38;100.00;100482.22;4978812;28;20475;-78
2023/03/06 07:23:29;;;;;;;6.15;3.15;;;;;;;2.46;100.00;100493.41;4979055;28;20046;-77
2023/03/06 07:25:56;;;;;;;6.20;3.38;;;;;;;2.47;100.00;100496.00;4965522;28;20503;-77
2023/03/06 07:28:22;;;;;;;10.88;3.78;;;;;;;2.60;100.00;100496.53;4975003;28;20035;-78
2023/03/06 07:30:48;;;;;;;8.95;3.25;;;;;;;2.56;100.00;100502.78;4972179;28;20063;-79
2023/03/06 07:33:16;;;;;;;4.25;2.90;;;;;;;2.58;100.00;100498.34;4972389;28;20045;-77
2023/03/06 07:35:42;;;;;;;5.93;3.10;;;;;;;2.67;100.00;100497.22;4966739;28;20066;-80
2023/03/06 07:38:09;;;;;;;6.32;2.90;;;;;;;2.69;100.00;100488.38;4982923;28;20038;-77
2023/03/06 07:40:37;;;;;;;5.88;3.63;;;;;;;2.79;100.00;100486.31;4940219;28;20535;-77
2023/03/06 07:43:04;;;;;;;8.48;3.80;;;;;;;2.98;100.00;100486.66;4985523;28;20082;-78
2023/03/06 07:45:36;;;;;;;5.65;2.83;;;;;;;2.98;100.00;100462.06;4975742;28;20031;-78
2023/03/06 07:48:02;;;;;;;10.90;2.97;;;;;;;3.33;100.00;100491.75;4978612;28;20038;-79
2023/03/06 07:50:29;;;;;;;5.35;3.08;;;;;;;3.44;100.00;100494.94;4987458;28;20031;-78
2023/03/06 07:52:56;;;;;;;4.82;3.15;;;;;;;3.38;100.00;100489.84;4978563;28;20042;-78
2023/03/06 07:55:23;;;;;;;8.25;2.95;;;;;;;3.55;100.00;100491.97;4980740;28;20914;-79
2023/03/06 07:57:50;;;;;;;4.47;2.30;;;;;;;3.67;100.00;100491.53;4971498;28;20061;-77
2023/03/06 08:00:17;;;;;;;4.25;2.42;;;;;;;3.66;100.00;100492.47;4982147;28;20066;-77
2023/03/06 08:02:43;;;;;;;5.55;2.30;;;;;;;3.68;100.00;100488.00;4988442;28;20045;-78
2023/03/06 08:05:13;;;;;;;7.22;2.35;;;;;;;3.67;100.00;100488.91;4976028;28;20043;-79
2023/03/06 08:07:39;;;;;;;3.53;2.38;;;;;;;3.64;100.00;100487.25;5002875;28;20045;-78
2023/03/06 08:10:06;;;;;;;4.28;2.60;;;;;;;3.86;100.00;100489.19;4972091;28;20519;-78
2023/03/06 08:12:32;;;;;;;6.93;2.50;;;;;;;4.10;100.00;100491.91;4990104;28;20492;-78
2023/03/06 08:14:59;;;;;;;3.65;2.70;;;;;;;4.37;100.00;100490.09;4987800;28;20595;-80
2023/03/06 08:17:25;;;;;;;3.80;2.10;;;;;;;4.63;100.00;100490.00;4984860;28;20038;-78
2023/03/06 08:19:51;;;;;;;3.35;2.20;;;;;;;5.05;100.00;100489.34;4981906;28;20078;-78
2023/03/06 08:22:18;;;;;;;5.38;2.20;;;;;;;5.28;100.00;100498.16;4971902;28;20515;-78
2023/03/06 08:24:44;;;;;;;3.95;1.90;;;;;;;5.43;100.00;100491.41;4975381;28;20038;-77
2023/03/06 08:27:10;;;;;;;4.63;2.00;;;;;;;5.53;100.00;100487.44;4973607;28;20119;-78
2023/03/06 08:29:36;;;;;;;3.78;1.83;;;;;;;5.74;100.00;100480.44;4971787;28;20039;-78
2023/03/06 08:32:03;;;;;;;4.38;2.15;;;;;;;5.85;100.00;100484.41;4978984;28;20547;-78
2023/03/06 08:34:29;;;;;;;4.03;1.80;;;;;;;6.12;100.00;100491.25;4972503;28;20398;-78
2023/03/06 08:36:55;;;;;;;3.08;1.52;;;;;;;6.33;100.00;100493.91;4984486;28;20096;-78
2023/03/06 08:39:22;;;;;;;7.25;1.85;;;;;;;6.44;100.00;100493.44;4980747;28;20035;-78
2023/03/06 08:41:49;;;;;;;5.30;1.33;;;;;;;6.54;100.00;100495.63;4974417;28;20153;-78
2023/03/06 08:44:15;;;;;;;2.38;1.25;;;;;;;6.81;100.00;100500.63;4976340;28;20042;-78
2023/03/06 08:46:41;;;;;;;2.15;1.63;;;;;;;6.67;100.00;100503.03;4963854;28;20386;-78
2023/03/06 08:49:08;;;;;;;2.22;1.45;;;;;;;6.73;100.00;100506.28;4988050;28;20042;-78
2023/03/06 08:51:35;;;;;;;5.55;1.50;;;;;;;7.05;100.00;100503.94;4989079;28;20022;-78
2023/03/06 08:54:01;;;;;;;2.35;1.20;;;;;;;7.32;100.00;100507.09;4973723;28;20492;-78
2023/03/06 08:56:30;;;;;;;3.03;1.52;;;;;;;7.24;100.00;100508.41;4986593;28;20077;-78
2023/03/06 08:58:57;;;;;;;6.18;1.45;;;;;;;7.29;100.00;100515.22;4973589;28;20503;-77
2023/03/06 09:01:43;;;;;;;5.13;2.50;;;;;;;7.58;100.00;100510.28;4978934;28;20042;-77
2023/03/06 09:04:10;;;;;;;2.42;1.38;;;;;;;7.81;100.00;100508.31;4971962;28;20054;-77
2023/03/06 09:06:40;;;;;;;6.38;1.40;;;;;;;8.20;100.00;100500.16;4974388;28;20045;-78
2023/03/06 09:09:07;;;;;;;2.25;1.35;;;;;;;8.51;100.00;100504.75;4972098;28;20046;-78
2023/03/06 09:11:33;;;;;;;2.55;1.40;;;;;;;8.89;100.00;100499.22;4985492;28;20038;-78
2023/03/06 09:13:59;;;;;;;2.45;1.27;;;;;;;9.52;100.00;100505.53;4974882;28;20066;-78
2023/03/06 09:16:27;;;;;;;7.07;1.35;;;;;;;9.38;100.00;100505.47;4971742;28;21539;-78
2023/03/06 09:18:53;;;;;;;3.58;1.20;;;;;;;8.53;100.00;100500.22;4985750;28;20046;-78
2023/03/06 09:21:21;;;;;;;2.28;1.38;;;;;;;8.32;100.00;100498.66;4988313;28;20034;-78
2023/03/06 09:23:47;;;;;;;2.78;1.10;;;;;;;9.23;100.00;100501.84;4983585;28;20197;-78
2023/03/06 09:26:14;;;;;;;3.90;1.30;;;;;;;9.26;100.00;100499.00;4983611;28;20026;-78
2023/03/06 09:28:40;;;;;;;3.03;1.13;;;;;;;9.81;100.00;100501.22;4979066;28;20070;-78
2023/03/06 09:31:19;;;;;;;2.20;1.20;;;;;;;9.69;100.00;100500.13;4982805;28;20132;-78
2023/03/06 09:33:47;;;;;;;1.55;0.95;;;;;;;10.43;100.00;100508.31;4991987;28;20045;-78
2023/03/06 09:36:21;;;;;;;4.32;1.35;;;;;;;11.29;100.00;100511.00;4974967;28;20117;-78
2023/03/06 09:38:48;;;;;;;2.00;1.00;;;;;;;11.78;100.00;100513.19;4980001;28;20456;-78
2023/03/06 09:41:36;;;;;;;2.85;1.08;;;;;;;12.22;99.41;100503.16;4990223;28;20096;-77
2023/03/06 09:44:15;;;;;;;2.42;0.95;;;;;;;11.90;100.00;100516.03;4971836;28;20111;-77
2023/03/06 09:46:52;;;;;;;7.32;1.00;;;;;;;11.88;95.25;100518.78;4980972;28;20073;-79
2023/03/06 09:49:25;;;;;;;2.70;0.77;;;;;;;11.71;94.28;100516.38;4991415;28;20034;-78
2023/03/06 09:51:57;;;;;;;2.28;1.00;;;;;;;11.16;96.22;100513.59;4972398;28;20217;-78
2023/03/06 09:54:34;;;;;;;1.77;0.70;;;;;;;11.94;93.21;100518.41;4971302;28;20408;-78
2023/03/06 09:57:00;;;;;;;2.70;0.70;;;;;;;12.17;91.38;100527.59;4978935;28;20597;-77
2023/03/06 09:59:27;;;;;;;1.65;0.50;;;;;;;11.93;81.11;100527.41;4960844;28;20112;-77
2023/03/06 10:02:24;;;;;;;1.30;0.77;;;;;;;11.50;77.08;100530.16;4962385;28;20551;-77
2023/03/06 10:04:58;;;;;;;2.63;0.80;;;;;;;10.84;84.01;100524.47;4982875;28;20124;-78
2023/03/06 10:08:00;;;;;;;4.07;0.80;;;;;;;10.05;88.22;100522.09;4971478;28;20070;-78
2023/03/06 10:10:35;;;;;;;1.98;1.00;;;;;;;9.97;89.85;100521.66;4962078;28;20051;-79
2023/03/06 10:13:28;;;;;;;2.08;0.88;;;;;;;9.93;89.48;100522.78;4956696;28;20400;-78
2023/03/06 10:16:02;;;;;;;1.92;0.98;;;;;;;9.65;86.75;100519.91;4969120;28;20089;-78
2023/03/06 10:18:29;;;;;;;2.00;1.02;;;;;;;9.42;94.62;100510.53;4969606;28;20035;-78
2023/03/06 10:20:58;;;;;;;1.85;1.33;;;;;;;9.24;100.00;100509.75;4978081;28;20117;-78
2023/03/06 10:23:41;;;;;;;6.47;1.42;;;;;;;9.24;100.00;100508.88;4977138;28;20738;-78
2023/03/06 10:26:15;;;;;;;5.25;1.20;;;;;;;9.47;100.00;100504.97;4967118;28;20038;-77
2023/03/06 10:28:46;;;;;;;3.20;1.17;;;;;;;9.31;100.00;100503.13;4969887;28;20045;-77
2023/03/06 10:31:24;;;;;;;4.30;1.20;;;;;;;9.56;100.00;100504.44;4971416;28;20096;-77
2023/03/06 10:34:14;;;;;;;11.93;3.03;;;;;;;9.47;100.00;100500.47;4988984;28;20050;-77
2023/03/06 10:36:40;;;;;;;2.25;1.20;;;;;;;9.49;100.00;100492.41;4986041;28;20034;-77
2023/03/06 10:39:15;;;;;;;3.03;1.50;;;;;;;9.72;100.00;100490.22;4972561;28;20058;-77
2023/03/06 10:41:42;;;;;;;4.00;1.48;;;;;;;9.49;100.00;100473.75;4967654;28;20095;-77
2023/03/06 10:44:20;;;;;;;3.65;1.23;;;;;;;9.39;100.00;100486.72;4984543;28;20121;-78
2023/03/06 10:46:48;;;;;;;4.57;1.52;;;;;;;9.30;100.00;100487.25;4972968;28;20034;-78
2023/03/06 10:49:34;;;;;;;6.22;1.73;;;;;;;9.32;100.00;100488.88;4970385;28;20512;-78
2023/03/06 10:52:21;;;;;;;5.93;1.75;;;;;;;9.22;100.00;100479.66;4970684;28;20030;-78
2023/03/06 10:54:48;;;;;;;3.65;1.67;;;;;;;9.36;100.00;100480.72;4971252;28;20035;-78
2023/03/06 10:57:26;;;;;;;4.53;1.90;;;;;;;9.18;100.00;100478.13;4969753;28;20035;-78
2023/03/06 10:59:58;;;;;;;5.05;1.70;;;;;;;9.09;100.00;100476.81;4984647;28;20277;-78
2023/03/06 11:02:29;;;;;;;5.13;2.03;;;;;;;8.98;100.00;100471.22;4970561;28;20043;-78
2023/03/06 11:04:57;;;;;;;6.55;1.50;;;;;;;9.09;100.00;100478.63;4969577;28;20449;-78
2023/03/06 11:07:29;;;;;;;4.72;1.40;;;;;;;9.02;100.00;100471.91;4969882;28;20118;-78
2023/03/06 11:10:06;;;;;;;5.45;1.40;;;;;;;8.92;100.00;100467.09;4953368;28;20511;-78
2023/03/06 11:12:35;;;;;;;4.32;1.38;;;;;;;8.88;100.00;100464.69;4980510;28;20038;-78
2023/03/06 11:15:19;;;;;;;3.85;1.50;;;;;;;8.74;100.00;100457.44;4968934;28;20018;-78
2023/03/06 11:18:22;;;;;;;3.38;1.58;;;;;;;8.89;100.00;100461.97;4985735;28;20092;-78
2023/03/06 11:20:51;;;;;;;7.00;1.75;;;;;;;9.06;100.00;100457.53;4983359;28;20514;-78
2023/03/06 11:23:35;;;;;;;3.70;1.65;;;;;;;9.19;100.00;100463.88;4963674;28;20520;-78
2023/03/06 11:26:24;;;;;;;6.13;1.88;;;;;;;9.25;100.00;100452.88;4978741;28;20035;-78
2023/03/06 11:29:20;;;;;;;2.67;1.50;;;;;;;8.84;100.00;100448.03;4985583;28;20042;-78